sensor_id;sensor_type;location;lat;lon;timestamp;temperature;humidity
23251;DHT22;11794;49.730;10.088;2022-10-30T00:00:31;12.80;99.90
23251;DHT22;11794;49.730;10.088;2022-10-30T00:02:56;12.80;99.90
23251;DHT22;11794;49.730;10.088;2022-10-30T00:05:22;12.80;99.90
23251;DHT22;11794;49.730;10.088;2022-10-30T00:07:48;12.80;99.90
23251;DHT22;11794;49.730;10.088;2022-10-30T00:10:14;12.80;99.90
23251;DHT22;11794;49.730;10.088;2022-10-30T00:12:40;12.80;99.90
23251;DHT22;11794;49.730;10.088;2022-10-30T00:15:07;12.80;99.90
23251;DHT22;11794;49.730;10.088;2022-10-30T00:17:33;12.80;99.90
23251;DHT22;11794;49.730;10.088;2022-10-30T00:19:58;12.80;99.90
23251;DHT22;11794;49.730;10.088;2022-10-30T00:22:24;12.80;99.90
23251;DHT22;11794;49.730;10.088;2022-10-30T00:24:50;12.80;99.90
23251;DHT22;11794;49.730;10.088;2022-10-30T00:27:15;12.80;99.90
23251;DHT22;11794;49.730;10.088;2022-10-30T00:29:41;12.70;99.90
23251;DHT22;11794;49.730;10.088;2022-10-30T00:32:06;12.70;99.90
23251;DHT22;11794;49.730;10.088;2022-10-30T00:34:32;12.70;99.90
23251;DHT22;11794;49.730;10.088;2022-10-30T00:36:57;12.70;99.90
23251;DHT22;11794;49.730;10.088;2022-10-30T00:39:23;12.70;99.90
23251;DHT22;11794;49.730;10.088;2022-10-30T00:41:49;12.70;99.90
23251;DHT22;11794;49.730;10.088;2022-10-30T00:44:50;12.60;99.90
23251;DHT22;11794;49.730;10.088;2022-10-30T00:47:27;12.60;99.90
23251;DHT22;11794;49.730;10.088;2022-10-30T00:50:34;12.50;99.90
23251;DHT22;11794;49.730;10.088;2022-10-30T00:53:06;12.50;99.90
23251;DHT22;11794;49.730;10.088;2022-10-30T00:55:37;12.40;99.90
23251;DHT22;11794;49.730;10.088;2022-10-30T00:58:05;12.40;99.90
23251;DHT22;11794;49.730;10.088;2022-10-30T01:00:34;12.30;99.90
23251;DHT22;11794;49.730;10.088;2022-10-30T01:03:01;12.20;99.90
23251;DHT22;11794;49.730;10.088;2022-10-30T01:05:29;12.30;99.90
23251;DHT22;11794;49.730;10.088;2022-10-30T01:07:55;12.20;99.90
23251;DHT22;11794;49.730;10.088;2022-10-30T01:10:21;12.20;99.90
23251;DHT22;11794;49.730;10.088;2022-10-30T01:12:48;12.10;99.90
23251;DHT22;11794;49.730;10.088;2022-10-30T01:15:15;12.10;99.90
23251;DHT22;11794;49.730;10.088;2022-10-30T01:17:54;12.10;99.90
23251;DHT22;11794;49.730;10.088;2022-10-30T01:26:42;12.00;99.90
23251;DHT22;11794;49.730;10.088;2022-10-30T01:35:31;12.00;99.90
23251;DHT22;11794;49.730;10.088;2022-10-30T01:38:14;12.00;99.90
23251;DHT22;11794;49.730;10.088;2022-10-30T01:40:43;11.90;99.90
23251;DHT22;11794;49.730;10.088;2022-10-30T01:43:09;11.90;99.90
23251;DHT22;11794;49.730;10.088;2022-10-30T01:46:06;12.00;99.90
23251;DHT22;11794;49.730;10.088;2022-10-30T01:48:43;12.00;99.90
23251;DHT22;11794;49.730;10.088;2022-10-30T01:51:30;11.90;99.90
23251;DHT22;11794;49.730;10.088;2022-10-30T02:01:53;11.80;99.90
23251;DHT22;11794;49.730;10.088;2022-10-30T02:04:19;11.70;99.90
23251;DHT22;11794;49.730;10.088;2022-10-30T02:06:45;11.70;99.90
23251;DHT22;11794;49.730;10.088;2022-10-30T02:09:14;11.70;99.90
23251;DHT22;11794;49.730;10.088;2022-10-30T02:11:39;11.70;99.90
23251;DHT22;11794;49.730;10.088;2022-10-30T02:14:06;11.60;99.90
23251;DHT22;11794;49.730;10.088;2022-10-30T02:16:36;11.70;99.90
23251;DHT22;11794;49.730;10.088;2022-10-30T02:19:03;11.70;99.90
23251;DHT22;11794;49.730;10.088;2022-10-30T02:21:29;11.80;99.90
23251;DHT22;11794;49.730;10.088;2022-10-30T02:23:54;11.80;99.90
23251;DHT22;11794;49.730;10.088;2022-10-30T02:26:20;11.80;99.90
23251;DHT22;11794;49.730;10.088;2022-10-30T02:28:45;11.80;99.90
23251;DHT22;11794;49.730;10.088;2022-10-30T02:31:11;11.80;99.90
23251;DHT22;11794;49.730;10.088;2022-10-30T02:33:36;11.80;99.90
23251;DHT22;11794;49.730;10.088;2022-10-30T02:36:02;11.80;99.90
23251;DHT22;11794;49.730;10.088;2022-10-30T02:38:28;11.70;99.90
23251;DHT22;11794;49.730;10.088;2022-10-30T02:40:56;11.70;99.90
23251;DHT22;11794;49.730;10.088;2022-10-30T02:43:22;11.80;99.90
23251;DHT22;11794;49.730;10.088;2022-10-30T02:45:50;11.70;99.90
23251;DHT22;11794;49.730;10.088;2022-10-30T02:48:16;11.60;99.90
23251;DHT22;11794;49.730;10.088;2022-10-30T02:50:42;11.60;99.90
23251;DHT22;11794;49.730;10.088;2022-10-30T02:53:07;11.60;99.90
23251;DHT22;11794;49.730;10.088;2022-10-30T02:55:33;11.50;99.90
23251;DHT22;11794;49.730;10.088;2022-10-30T02:57:58;11.50;99.90
23251;DHT22;11794;49.730;10.088;2022-10-30T03:00:24;11.50;99.90
23251;DHT22;11794;49.730;10.088;2022-10-30T03:02:54;11.50;99.90
23251;DHT22;11794;49.730;10.088;2022-10-30T03:05:20;11.40;99.90
23251;DHT22;11794;49.730;10.088;2022-10-30T03:07:45;11.40;99.90
23251;DHT22;11794;49.730;10.088;2022-10-30T03:10:13;11.50;99.90
23251;DHT22;11794;49.730;10.088;2022-10-30T03:12:39;11.40;99.90
23251;DHT22;11794;49.730;10.088;2022-10-30T03:15:05;11.40;99.90
23251;DHT22;11794;49.730;10.088;2022-10-30T03:17:30;11.30;99.90
23251;DHT22;11794;49.730;10.088;2022-10-30T03:19:56;11.30;99.90
23251;DHT22;11794;49.730;10.088;2022-10-30T03:22:21;11.20;99.90
23251;DHT22;11794;49.730;10.088;2022-10-30T03:24:47;11.20;99.90
23251;DHT22;11794;49.730;10.088;2022-10-30T03:27:13;11.20;99.90
23251;DHT22;11794;49.730;10.088;2022-10-30T03:29:38;11.10;99.90
23251;DHT22;11794;49.730;10.088;2022-10-30T03:32:08;11.00;99.90
23251;DHT22;11794;49.730;10.088;2022-10-30T03:34:33;10.90;99.90
23251;DHT22;11794;49.730;10.088;2022-10-30T03:36:59;10.90;99.90
23251;DHT22;11794;49.730;10.088;2022-10-30T03:39:24;10.90;99.90
23251;DHT22;11794;49.730;10.088;2022-10-30T03:41:50;10.80;99.90
23251;DHT22;11794;49.730;10.088;2022-10-30T03:44:15;10.80;99.90
23251;DHT22;11794;49.730;10.088;2022-10-30T03:46:41;10.80;99.90
23251;DHT22;11794;49.730;10.088;2022-10-30T03:49:06;10.80;99.90
23251;DHT22;11794;49.730;10.088;2022-10-30T03:51:32;10.80;99.90
23251;DHT22;11794;49.730;10.088;2022-10-30T03:53:57;10.80;99.90
23251;DHT22;11794;49.730;10.088;2022-10-30T03:56:23;10.70;99.90
23251;DHT22;11794;49.730;10.088;2022-10-30T03:58:49;10.70;99.90
23251;DHT22;11794;49.730;10.088;2022-10-30T04:01:14;10.70;99.90
23251;DHT22;11794;49.730;10.088;2022-10-30T04:03:40;10.70;99.90
23251;DHT22;11794;49.730;10.088;2022-10-30T04:06:05;10.70;99.90
23251;DHT22;11794;49.730;10.088;2022-10-30T04:08:32;10.70;99.90
23251;DHT22;11794;49.730;10.088;2022-10-30T04:10:57;10.70;99.90
23251;DHT22;11794;49.730;10.088;2022-10-30T04:13:23;10.60;99.90
23251;DHT22;11794;49.730;10.088;2022-10-30T04:15:49;10.60;99.90
23251;DHT22;11794;49.730;10.088;2022-10-30T04:18:15;10.60;99.90
23251;DHT22;11794;49.730;10.088;2022-10-30T04:20:41;10.60;99.90
23251;DHT22;11794;49.730;10.088;2022-10-30T04:23:11;10.60;99.90
23251;DHT22;11794;49.730;10.088;2022-10-30T04:25:37;10.60;99.90
23251;DHT22;11794;49.730;10.088;2022-10-30T04:28:02;10.50;99.90
23251;DHT22;11794;49.730;10.088;2022-10-30T04:30:28;10.50;99.90
23251;DHT22;11794;49.730;10.088;2022-10-30T04:32:58;10.50;99.90
23251;DHT22;11794;49.730;10.088;2022-10-30T04:35:26;10.40;99.90
23251;DHT22;11794;49.730;10.088;2022-10-30T04:38:03;10.40;99.90
23251;DHT22;11794;49.730;10.088;2022-10-30T04:40:30;10.40;99.90
23251;DHT22;11794;49.730;10.088;2022-10-30T04:42:57;10.40;99.90
23251;DHT22;11794;49.730;10.088;2022-10-30T04:45:22;10.40;99.90
23251;DHT22;11794;49.730;10.088;2022-10-30T04:47:48;10.40;99.90
23251;DHT22;11794;49.730;10.088;2022-10-30T04:50:14;10.40;99.90
23251;DHT22;11794;49.730;10.088;2022-10-30T04:52:40;10.40;99.90
23251;DHT22;11794;49.730;10.088;2022-10-30T04:55:06;10.40;99.90
23251;DHT22;11794;49.730;10.088;2022-10-30T04:57:32;10.50;99.90
23251;DHT22;11794;49.730;10.088;2022-10-30T04:59:58;10.40;99.90
23251;DHT22;11794;49.730;10.088;2022-10-30T05:02:24;10.40;99.90
23251;DHT22;11794;49.730;10.088;2022-10-30T05:04:50;10.40;99.90
23251;DHT22;11794;49.730;10.088;2022-10-30T05:07:16;10.40;99.90
23251;DHT22;11794;49.730;10.088;2022-10-30T05:09:42;10.40;99.90
23251;DHT22;11794;49.730;10.088;2022-10-30T05:12:09;10.40;99.90
23251;DHT22;11794;49.730;10.088;2022-10-30T05:14:34;10.40;99.90
23251;DHT22;11794;49.730;10.088;2022-10-30T05:17:00;10.40;99.90
23251;DHT22;11794;49.730;10.088;2022-10-30T05:19:26;10.40;99.90
23251;DHT22;11794;49.730;10.088;2022-10-30T05:21:51;10.40;99.90
23251;DHT22;11794;49.730;10.088;2022-10-30T05:24:17;10.40;99.90
23251;DHT22;11794;49.730;10.088;2022-10-30T05:26:43;10.40;99.90
23251;DHT22;11794;49.730;10.088;2022-10-30T05:29:08;10.40;99.90
23251;DHT22;11794;49.730;10.088;2022-10-30T05:31:34;10.40;99.90
23251;DHT22;11794;49.730;10.088;2022-10-30T05:34:00;10.40;99.90
23251;DHT22;11794;49.730;10.088;2022-10-30T05:36:25;10.30;99.90
23251;DHT22;11794;49.730;10.088;2022-10-30T05:38:51;10.30;99.90
23251;DHT22;11794;49.730;10.088;2022-10-30T05:41:16;10.20;99.90
23251;DHT22;11794;49.730;10.088;2022-10-30T05:43:42;10.20;99.90
23251;DHT22;11794;49.730;10.088;2022-10-30T05:46:07;10.20;99.90
23251;DHT22;11794;49.730;10.088;2022-10-30T05:48:33;10.20;99.90
23251;DHT22;11794;49.730;10.088;2022-10-30T05:50:59;10.40;99.90
23251;DHT22;11794;49.730;10.088;2022-10-30T05:53:24;10.30;99.90
23251;DHT22;11794;49.730;10.088;2022-10-30T05:55:50;10.30;99.90
23251;DHT22;11794;49.730;10.088;2022-10-30T05:58:16;10.20;99.90
23251;DHT22;11794;49.730;10.088;2022-10-30T06:00:42;10.20;99.90
23251;DHT22;11794;49.730;10.088;2022-10-30T06:03:12;10.20;99.90
23251;DHT22;11794;49.730;10.088;2022-10-30T06:05:38;10.20;99.90
23251;DHT22;11794;49.730;10.088;2022-10-30T06:08:05;10.20;99.90
23251;DHT22;11794;49.730;10.088;2022-10-30T06:10:31;10.30;99.90
23251;DHT22;11794;49.730;10.088;2022-10-30T06:12:58;10.30;99.90
23251;DHT22;11794;49.730;10.088;2022-10-30T06:15:24;10.40;99.90
23251;DHT22;11794;49.730;10.088;2022-10-30T06:17:50;10.40;99.90
23251;DHT22;11794;49.730;10.088;2022-10-30T06:20:17;10.40;99.90
23251;DHT22;11794;49.730;10.088;2022-10-30T06:25:21;10.40;99.90
23251;DHT22;11794;49.730;10.088;2022-10-30T06:27:47;10.40;99.90
23251;DHT22;11794;49.730;10.088;2022-10-30T06:30:12;10.40;99.90
23251;DHT22;11794;49.730;10.088;2022-10-30T06:32:38;10.40;99.90
23251;DHT22;11794;49.730;10.088;2022-10-30T06:35:04;10.40;99.90
23251;DHT22;11794;49.730;10.088;2022-10-30T06:37:29;10.40;99.90
23251;DHT22;11794;49.730;10.088;2022-10-30T06:39:55;10.40;99.90
23251;DHT22;11794;49.730;10.088;2022-10-30T06:42:20;10.40;99.90
23251;DHT22;11794;49.730;10.088;2022-10-30T06:44:46;10.40;99.90
23251;DHT22;11794;49.730;10.088;2022-10-30T06:47:13;10.40;99.90
23251;DHT22;11794;49.730;10.088;2022-10-30T06:49:39;10.40;99.90
23251;DHT22;11794;49.730;10.088;2022-10-30T06:52:04;10.40;99.90
23251;DHT22;11794;49.730;10.088;2022-10-30T06:54:30;10.50;99.90
23251;DHT22;11794;49.730;10.088;2022-10-30T06:56:55;10.60;99.90
23251;DHT22;11794;49.730;10.088;2022-10-30T06:59:21;10.60;99.90
23251;DHT22;11794;49.730;10.088;2022-10-30T07:01:46;10.60;99.90
23251;DHT22;11794;49.730;10.088;2022-10-30T07:04:12;10.60;99.90
23251;DHT22;11794;49.730;10.088;2022-10-30T07:06:37;10.60;99.90
23251;DHT22;11794;49.730;10.088;2022-10-30T07:09:03;10.60;99.90
23251;DHT22;11794;49.730;10.088;2022-10-30T07:11:28;10.60;99.90
23251;DHT22;11794;49.730;10.088;2022-10-30T07:13:54;10.70;99.90
23251;DHT22;11794;49.730;10.088;2022-10-30T07:16:19;10.80;99.90
23251;DHT22;11794;49.730;10.088;2022-10-30T07:18:45;10.90;99.90
23251;DHT22;11794;49.730;10.088;2022-10-30T07:21:11;11.00;99.90
23251;DHT22;11794;49.730;10.088;2022-10-30T07:23:36;11.10;99.90
23251;DHT22;11794;49.730;10.088;2022-10-30T07:26:02;11.30;99.90
23251;DHT22;11794;49.730;10.088;2022-10-30T07:28:27;11.40;99.90
23251;DHT22;11794;49.730;10.088;2022-10-30T07:30:53;11.30;99.90
23251;DHT22;11794;49.730;10.088;2022-10-30T07:33:18;11.40;99.90
23251;DHT22;11794;49.730;10.088;2022-10-30T07:35:44;11.50;99.90
23251;DHT22;11794;49.730;10.088;2022-10-30T07:38:10;11.70;99.90
23251;DHT22;11794;49.730;10.088;2022-10-30T07:40:37;12.00;99.90
23251;DHT22;11794;49.730;10.088;2022-10-30T07:43:03;12.50;99.90
23251;DHT22;11794;49.730;10.088;2022-10-30T07:45:29;13.00;99.90
23251;DHT22;11794;49.730;10.088;2022-10-30T07:47:55;13.60;99.90
23251;DHT22;11794;49.730;10.088;2022-10-30T07:50:21;14.20;99.90
23251;DHT22;11794;49.730;10.088;2022-10-30T07:52:47;14.80;99.90
23251;DHT22;11794;49.730;10.088;2022-10-30T07:55:12;15.30;99.90
23251;DHT22;11794;49.730;10.088;2022-10-30T07:57:40;15.90;99.90
23251;DHT22;11794;49.730;10.088;2022-10-30T08:00:11;16.60;99.90
23251;DHT22;11794;49.730;10.088;2022-10-30T08:02:37;17.30;99.90
23251;DHT22;11794;49.730;10.088;2022-10-30T08:05:03;17.90;99.90
23251;DHT22;11794;49.730;10.088;2022-10-30T08:07:30;18.60;99.90
23251;DHT22;11794;49.730;10.088;2022-10-30T08:09:56;19.20;99.90
23251;DHT22;11794;49.730;10.088;2022-10-30T08:12:22;19.80;99.90
23251;DHT22;11794;49.730;10.088;2022-10-30T08:14:48;19.90;99.90
23251;DHT22;11794;49.730;10.088;2022-10-30T08:17:13;20.00;99.90
23251;DHT22;11794;49.730;10.088;2022-10-30T08:19:39;20.20;99.90
23251;DHT22;11794;49.730;10.088;2022-10-30T08:22:05;20.30;99.90
23251;DHT22;11794;49.730;10.088;2022-10-30T08:24:30;20.70;99.90
23251;DHT22;11794;49.730;10.088;2022-10-30T08:26:56;21.10;99.90
23251;DHT22;11794;49.730;10.088;2022-10-30T08:29:22;21.40;99.90
23251;DHT22;11794;49.730;10.088;2022-10-30T08:31:48;21.40;99.90
23251;DHT22;11794;49.730;10.088;2022-10-30T08:34:14;21.00;99.90
23251;DHT22;11794;49.730;10.088;2022-10-30T08:36:40;20.70;99.90
23251;DHT22;11794;49.730;10.088;2022-10-30T08:39:05;20.60;99.90
23251;DHT22;11794;49.730;10.088;2022-10-30T08:41:30;20.50;99.90
23251;DHT22;11794;49.730;10.088;2022-10-30T08:43:56;20.20;99.90
23251;DHT22;11794;49.730;10.088;2022-10-30T08:46:21;20.60;99.90
23251;DHT22;11794;49.730;10.088;2022-10-30T08:48:47;21.40;99.90
23251;DHT22;11794;49.730;10.088;2022-10-30T08:51:13;21.90;99.90
23251;DHT22;11794;49.730;10.088;2022-10-30T08:53:38;22.40;99.90
23251;DHT22;11794;49.730;10.088;2022-10-30T08:56:04;22.50;99.90
23251;DHT22;11794;49.730;10.088;2022-10-30T08:58:30;22.60;99.90
23251;DHT22;11794;49.730;10.088;2022-10-30T09:00:55;22.50;99.90
23251;DHT22;11794;49.730;10.088;2022-10-30T09:03:21;22.70;99.90
23251;DHT22;11794;49.730;10.088;2022-10-30T09:05:47;22.80;99.90
23251;DHT22;11794;49.730;10.088;2022-10-30T09:08:13;23.00;99.90
23251;DHT22;11794;49.730;10.088;2022-10-30T09:10:38;23.30;99.90
23251;DHT22;11794;49.730;10.088;2022-10-30T09:13:04;23.60;99.90
23251;DHT22;11794;49.730;10.088;2022-10-30T09:15:29;23.60;99.90
23251;DHT22;11794;49.730;10.088;2022-10-30T09:18:00;23.70;99.90
23251;DHT22;11794;49.730;10.088;2022-10-30T09:20:27;24.20;99.90
23251;DHT22;11794;49.730;10.088;2022-10-30T09:22:53;24.20;99.90
23251;DHT22;11794;49.730;10.088;2022-10-30T09:25:19;24.50;99.90
23251;DHT22;11794;49.730;10.088;2022-10-30T09:27:45;24.50;99.90
23251;DHT22;11794;49.730;10.088;2022-10-30T09:30:11;24.70;99.90
23251;DHT22;11794;49.730;10.088;2022-10-30T09:32:37;25.00;99.90
23251;DHT22;11794;49.730;10.088;2022-10-30T09:35:03;25.00;99.90
23251;DHT22;11794;49.730;10.088;2022-10-30T09:37:33;25.20;99.90
23251;DHT22;11794;49.730;10.088;2022-10-30T09:39:58;25.40;99.90
23251;DHT22;11794;49.730;10.088;2022-10-30T09:42:42;25.30;99.90
23251;DHT22;11794;49.730;10.088;2022-10-30T09:48:28;25.60;99.90
23251;DHT22;11794;49.730;10.088;2022-10-30T09:53:44;25.50;99.90
23251;DHT22;11794;49.730;10.088;2022-10-30T09:56:18;25.50;99.90
23251;DHT22;11794;49.730;10.088;2022-10-30T09:59:06;25.80;99.90
23251;DHT22;11794;49.730;10.088;2022-10-30T10:04:24;26.20;99.90
23251;DHT22;11794;49.730;10.088;2022-10-30T10:06:55;26.40;99.90
23251;DHT22;11794;49.730;10.088;2022-10-30T10:09:24;26.40;99.90
23251;DHT22;11794;49.730;10.088;2022-10-30T10:11:56;26.20;99.90
23251;DHT22;11794;49.730;10.088;2022-10-30T10:14:28;25.60;99.90
23251;DHT22;11794;49.730;10.088;2022-10-30T10:16:56;25.30;99.90
23251;DHT22;11794;49.730;10.088;2022-10-30T10:19:30;25.20;99.90
23251;DHT22;11794;49.730;10.088;2022-10-30T10:21:58;25.30;99.90
23251;DHT22;11794;49.730;10.088;2022-10-30T10:24:28;25.40;99.90
23251;DHT22;11794;49.730;10.088;2022-10-30T10:30:00;25.70;99.90
23251;DHT22;11794;49.730;10.088;2022-10-30T10:37:46;25.50;99.90
23251;DHT22;11794;49.730;10.088;2022-10-30T10:49:00;24.30;99.90
23251;DHT22;11794;49.730;10.088;2022-10-30T10:51:42;24.30;99.90
23251;DHT22;11794;49.730;10.088;2022-10-30T10:54:22;24.30;99.90
23251;DHT22;11794;49.730;10.088;2022-10-30T10:56:49;24.10;99.90
23251;DHT22;11794;49.730;10.088;2022-10-30T10:59:32;24.60;99.90
23251;DHT22;11794;49.730;10.088;2022-10-30T11:04:41;26.60;99.90
23251;DHT22;11794;49.730;10.088;2022-10-30T11:07:28;27.50;99.90
23251;DHT22;11794;49.730;10.088;2022-10-30T11:09:55;28.10;99.90
23251;DHT22;11794;49.730;10.088;2022-10-30T11:12:31;28.70;99.90
23251;DHT22;11794;49.730;10.088;2022-10-30T11:15:06;29.20;99.90
23251;DHT22;11794;49.730;10.088;2022-10-30T11:17:45;29.30;99.90
23251;DHT22;11794;49.730;10.088;2022-10-30T11:20:30;29.10;99.90
23251;DHT22;11794;49.730;10.088;2022-10-30T11:22:57;29.00;99.90
23251;DHT22;11794;49.730;10.088;2022-10-30T11:25:33;28.90;99.90
23251;DHT22;11794;49.730;10.088;2022-10-30T11:28:00;29.00;99.90
23251;DHT22;11794;49.730;10.088;2022-10-30T11:30:28;29.30;99.90
23251;DHT22;11794;49.730;10.088;2022-10-30T11:32:55;29.30;99.90
23251;DHT22;11794;49.730;10.088;2022-10-30T11:35:21;29.30;99.90
23251;DHT22;11794;49.730;10.088;2022-10-30T11:37:49;29.10;99.90
23251;DHT22;11794;49.730;10.088;2022-10-30T11:40:19;29.40;99.90
23251;DHT22;11794;49.730;10.088;2022-10-30T11:42:57;29.60;99.90
23251;DHT22;11794;49.730;10.088;2022-10-30T11:45:29;30.20;99.90
23251;DHT22;11794;49.730;10.088;2022-10-30T11:47:58;30.40;99.90
23251;DHT22;11794;49.730;10.088;2022-10-30T11:50:30;30.10;99.90
23251;DHT22;11794;49.730;10.088;2022-10-30T11:53:09;30.20;99.90
23251;DHT22;11794;49.730;10.088;2022-10-30T11:55:38;30.50;99.90
23251;DHT22;11794;49.730;10.088;2022-10-30T11:58:05;30.90;99.90
23251;DHT22;11794;49.730;10.088;2022-10-30T12:00:33;31.10;99.90
23251;DHT22;11794;49.730;10.088;2022-10-30T12:03:00;31.60;99.60
23251;DHT22;11794;49.730;10.088;2022-10-30T12:08:18;32.50;99.50
23251;DHT22;11794;49.730;10.088;2022-10-30T12:10:55;32.80;98.50
23251;DHT22;11794;49.730;10.088;2022-10-30T12:13:22;33.30;97.90
23251;DHT22;11794;49.730;10.088;2022-10-30T12:15:50;33.70;97.00
23251;DHT22;11794;49.730;10.088;2022-10-30T12:18:27;33.20;96.50
23251;DHT22;11794;49.730;10.088;2022-10-30T12:20:55;33.20;96.90
23251;DHT22;11794;49.730;10.088;2022-10-30T12:23:23;33.40;96.20
23251;DHT22;11794;49.730;10.088;2022-10-30T12:26:10;33.80;96.00
23251;DHT22;11794;49.730;10.088;2022-10-30T12:28:37;34.00;95.50
23251;DHT22;11794;49.730;10.088;2022-10-30T12:31:13;34.10;94.90
23251;DHT22;11794;49.730;10.088;2022-10-30T12:33:52;34.10;94.80
23251;DHT22;11794;49.730;10.088;2022-10-30T12:36:25;34.40;93.80
23251;DHT22;11794;49.730;10.088;2022-10-30T12:39:04;34.70;93.00
23251;DHT22;11794;49.730;10.088;2022-10-30T12:41:39;34.70;94.10
23251;DHT22;11794;49.730;10.088;2022-10-30T12:46:53;34.40;94.10
23251;DHT22;11794;49.730;10.088;2022-10-30T12:49:32;34.60;95.00
23251;DHT22;11794;49.730;10.088;2022-10-30T12:52:21;34.90;94.00
23251;DHT22;11794;49.730;10.088;2022-10-30T12:55:07;34.60;93.50
23251;DHT22;11794;49.730;10.088;2022-10-30T12:57:42;34.30;94.30
23251;DHT22;11794;49.730;10.088;2022-10-30T13:00:13;34.30;94.00
23251;DHT22;11794;49.730;10.088;2022-10-30T13:07:49;34.10;93.80
23251;DHT22;11794;49.730;10.088;2022-10-30T13:12:48;33.40;94.10
23251;DHT22;11794;49.730;10.088;2022-10-30T13:15:34;33.80;93.60
23251;DHT22;11794;49.730;10.088;2022-10-30T13:18:15;33.90;94.20
23251;DHT22;11794;49.730;10.088;2022-10-30T13:20:45;33.60;94.40
23251;DHT22;11794;49.730;10.088;2022-10-30T13:23:19;33.70;94.50
23251;DHT22;11794;49.730;10.088;2022-10-30T13:26:14;33.30;94.00
23251;DHT22;11794;49.730;10.088;2022-10-30T13:28:46;32.80;94.50
23251;DHT22;11794;49.730;10.088;2022-10-30T13:36:42;32.20;95.40
23251;DHT22;11794;49.730;10.088;2022-10-30T13:42:14;31.00;97.20
23251;DHT22;11794;49.730;10.088;2022-10-30T13:47:34;31.30;95.80
23251;DHT22;11794;49.730;10.088;2022-10-30T13:50:20;30.40;97.30
23251;DHT22;11794;49.730;10.088;2022-10-30T13:52:53;29.50;98.00
23251;DHT22;11794;49.730;10.088;2022-10-30T13:55:32;28.70;98.60
23251;DHT22;11794;49.730;10.088;2022-10-30T13:58:23;28.00;99.50
23251;DHT22;11794;49.730;10.088;2022-10-30T14:00:53;27.20;99.90
23251;DHT22;11794;49.730;10.088;2022-10-30T14:03:40;26.80;99.90
23251;DHT22;11794;49.730;10.088;2022-10-30T14:06:41;26.60;99.90
23251;DHT22;11794;49.730;10.088;2022-10-30T14:09:36;26.60;99.90
23251;DHT22;11794;49.730;10.088;2022-10-30T14:20:38;26.90;99.90
23251;DHT22;11794;49.730;10.088;2022-10-30T14:28:26;27.80;99.90
23251;DHT22;11794;49.730;10.088;2022-10-30T14:31:13;27.20;99.90
23251;DHT22;11794;49.730;10.088;2022-10-30T14:33:49;26.70;99.90
23251;DHT22;11794;49.730;10.088;2022-10-30T14:36:17;26.20;99.90
23251;DHT22;11794;49.730;10.088;2022-10-30T14:38:57;25.70;99.90
23251;DHT22;11794;49.730;10.088;2022-10-30T14:41:31;25.30;99.90
23251;DHT22;11794;49.730;10.088;2022-10-30T14:44:25;24.80;99.90
23251;DHT22;11794;49.730;10.088;2022-10-30T14:47:32;24.40;99.90
23251;DHT22;11794;49.730;10.088;2022-10-30T14:50:15;23.90;99.90
23251;DHT22;11794;49.730;10.088;2022-10-30T14:55:29;23.70;99.90
23251;DHT22;11794;49.730;10.088;2022-10-30T15:00:38;23.20;99.90
23251;DHT22;11794;49.730;10.088;2022-10-30T15:06:03;23.20;99.90
23251;DHT22;11794;49.730;10.088;2022-10-30T15:11:25;23.00;99.90
23251;DHT22;11794;49.730;10.088;2022-10-30T15:13:57;22.70;99.90
23251;DHT22;11794;49.730;10.088;2022-10-30T15:16:25;22.30;99.90
23251;DHT22;11794;49.730;10.088;2022-10-30T15:19:01;22.00;99.90
23251;DHT22;11794;49.730;10.088;2022-10-30T15:21:28;21.70;99.90
23251;DHT22;11794;49.730;10.088;2022-10-30T15:23:58;21.40;99.90
23251;DHT22;11794;49.730;10.088;2022-10-30T15:26:32;21.10;99.90
23251;DHT22;11794;49.730;10.088;2022-10-30T15:28:59;20.70;99.90
23251;DHT22;11794;49.730;10.088;2022-10-30T15:31:26;20.50;99.90
23251;DHT22;11794;49.730;10.088;2022-10-30T15:33:53;20.40;99.90
23251;DHT22;11794;49.730;10.088;2022-10-30T15:36:22;20.20;99.90
23251;DHT22;11794;49.730;10.088;2022-10-30T15:44:10;19.80;99.90
23251;DHT22;11794;49.730;10.088;2022-10-30T15:46:37;19.70;99.90
23251;DHT22;11794;49.730;10.088;2022-10-30T15:49:03;19.50;99.90
23251;DHT22;11794;49.730;10.088;2022-10-30T15:51:28;19.30;99.90
23251;DHT22;11794;49.730;10.088;2022-10-30T15:53:59;19.10;99.90
23251;DHT22;11794;49.730;10.088;2022-10-30T15:56:37;18.90;99.90
23251;DHT22;11794;49.730;10.088;2022-10-30T15:59:15;18.70;99.90
23251;DHT22;11794;49.730;10.088;2022-10-30T16:01:43;18.60;99.90
23251;DHT22;11794;49.730;10.088;2022-10-30T16:04:19;18.50;99.90
23251;DHT22;11794;49.730;10.088;2022-10-30T16:06:53;18.30;99.90
23251;DHT22;11794;49.730;10.088;2022-10-30T16:09:20;18.20;99.90
23251;DHT22;11794;49.730;10.088;2022-10-30T16:11:47;18.20;99.90
23251;DHT22;11794;49.730;10.088;2022-10-30T16:14:16;18.00;99.90
23251;DHT22;11794;49.730;10.088;2022-10-30T16:16:43;17.80;99.90
23251;DHT22;11794;49.730;10.088;2022-10-30T16:21:47;17.70;99.90
23251;DHT22;11794;49.730;10.088;2022-10-30T16:24:14;17.60;99.90
23251;DHT22;11794;49.730;10.088;2022-10-30T16:26:41;17.40;99.90
23251;DHT22;11794;49.730;10.088;2022-10-30T16:29:25;17.30;99.90
23251;DHT22;11794;49.730;10.088;2022-10-30T16:31:51;17.30;99.90
23251;DHT22;11794;49.730;10.088;2022-10-30T16:34:29;17.10;99.90
23251;DHT22;11794;49.730;10.088;2022-10-30T16:36:56;17.00;99.90
23251;DHT22;11794;49.730;10.088;2022-10-30T16:39:23;17.00;99.90
23251;DHT22;11794;49.730;10.088;2022-10-30T16:41:49;16.80;99.90
23251;DHT22;11794;49.730;10.088;2022-10-30T16:44:18;16.70;99.90
23251;DHT22;11794;49.730;10.088;2022-10-30T16:46:58;16.60;99.90
23251;DHT22;11794;49.730;10.088;2022-10-30T16:49:28;16.60;99.90
23251;DHT22;11794;49.730;10.088;2022-10-30T16:52:01;16.50;99.90
23251;DHT22;11794;49.730;10.088;2022-10-30T16:54:34;16.50;99.90
23251;DHT22;11794;49.730;10.088;2022-10-30T16:57:02;16.40;99.90
23251;DHT22;11794;49.730;10.088;2022-10-30T16:59:36;16.30;99.90
23251;DHT22;11794;49.730;10.088;2022-10-30T17:02:11;16.20;99.90
23251;DHT22;11794;49.730;10.088;2022-10-30T17:04:42;16.20;99.90
23251;DHT22;11794;49.730;10.088;2022-10-30T17:07:19;16.20;99.90
23251;DHT22;11794;49.730;10.088;2022-10-30T17:09:49;16.10;99.90
23251;DHT22;11794;49.730;10.088;2022-10-30T17:12:25;16.00;99.90
23251;DHT22;11794;49.730;10.088;2022-10-30T17:14:54;15.90;99.90
23251;DHT22;11794;49.730;10.088;2022-10-30T17:17:23;15.80;99.90